SAME/MDZ METAR and TAF weather

Enter ICAO airport designator
Station Type Date Time Source
SAME METAR 2019/04/25 17:00 UTC NOAA

SAME 251700Z 00000KT 9999 OVC020 15/11 Q1020


Station Type Date Time Source
SAME Decoded METAR 2019/04/25 17:00 UTC NOAA

Mendoza Aerodrome, Argentina (SAME) 32-50S 068-47W 704M
Apr 25, 2019 - 01:00 PM EDT / 2019.04.25 1700 UTC
Wind: Calm:0
Visibility: greater than 7 mile(s):0
Sky conditions: overcast
Temperature: 59 F (15 C)
Dew Point: 51 F (11 C)
Relative Humidity: 76%
Pressure (altimeter): 30.12 in. Hg (1020 hPa)
ob: SAME 251700Z 00000KT 9999 OVC020 15/11 Q1020
cycle: 17

Station Type Date Time Source
SAME TAF 2019/04/25 18:06 UTC NOAA

TAF TAF SAME 251700Z 2518/2618 14005KT 9999 SCT015 BKN040 TX17/2520Z TN10/2610Z

Example: see airport list